sensor_id;sensor_type;location;lat;lon;timestamp;temperature;humidity
23233;DHT22;11785;49.500;8.288;2023-02-01T00:01:38;6.60;99.90
23233;DHT22;11785;49.500;8.288;2023-02-01T00:04:04;6.40;99.90
23233;DHT22;11785;49.500;8.288;2023-02-01T00:06:29;6.40;99.90
23233;DHT22;11785;49.500;8.288;2023-02-01T00:08:55;6.40;99.90
23233;DHT22;11785;49.500;8.288;2023-02-01T00:11:22;6.40;99.90
23233;DHT22;11785;49.500;8.288;2023-02-01T00:13:47;6.40;99.90
23233;DHT22;11785;49.500;8.288;2023-02-01T00:16:22;6.40;99.90
23233;DHT22;11785;49.500;8.288;2023-02-01T00:18:50;6.40;99.90
23233;DHT22;11785;49.500;8.288;2023-02-01T00:21:19;6.40;99.90
23233;DHT22;11785;49.500;8.288;2023-02-01T00:23:45;6.40;99.90
23233;DHT22;11785;49.500;8.288;2023-02-01T00:26:15;6.50;99.90
23233;DHT22;11785;49.500;8.288;2023-02-01T00:28:41;6.40;99.90
23233;DHT22;11785;49.500;8.288;2023-02-01T00:31:07;6.40;99.90
23233;DHT22;11785;49.500;8.288;2023-02-01T00:33:33;6.30;99.90
23233;DHT22;11785;49.500;8.288;2023-02-01T00:36:01;6.30;99.90
23233;DHT22;11785;49.500;8.288;2023-02-01T00:38:28;6.30;99.90
23233;DHT22;11785;49.500;8.288;2023-02-01T00:40:54;6.30;99.90
23233;DHT22;11785;49.500;8.288;2023-02-01T00:43:21;6.30;99.90
23233;DHT22;11785;49.500;8.288;2023-02-01T00:45:47;6.30;99.90
23233;DHT22;11785;49.500;8.288;2023-02-01T00:48:12;6.30;99.90
23233;DHT22;11785;49.500;8.288;2023-02-01T00:50:42;6.30;99.90
23233;DHT22;11785;49.500;8.288;2023-02-01T00:53:09;6.30;99.90
23233;DHT22;11785;49.500;8.288;2023-02-01T00:55:35;6.40;99.90
23233;DHT22;11785;49.500;8.288;2023-02-01T00:58:00;6.40;99.90
23233;DHT22;11785;49.500;8.288;2023-02-01T01:00:26;6.30;99.90
23233;DHT22;11785;49.500;8.288;2023-02-01T01:09:36;6.40;99.90
23233;DHT22;11785;49.500;8.288;2023-02-01T01:12:01;6.40;99.90
23233;DHT22;11785;49.500;8.288;2023-02-01T01:14:29;6.40;99.90
23233;DHT22;11785;49.500;8.288;2023-02-01T01:16:54;6.40;99.90
23233;DHT22;11785;49.500;8.288;2023-02-01T01:19:20;6.40;99.90
23233;DHT22;11785;49.500;8.288;2023-02-01T01:21:45;6.30;99.90
23233;DHT22;11785;49.500;8.288;2023-02-01T01:24:11;6.30;99.90
23233;DHT22;11785;49.500;8.288;2023-02-01T01:26:37;6.30;99.90
23233;DHT22;11785;49.500;8.288;2023-02-01T01:29:02;6.30;99.90
23233;DHT22;11785;49.500;8.288;2023-02-01T01:31:28;6.30;99.90
23233;DHT22;11785;49.500;8.288;2023-02-01T01:33:56;6.30;99.90
23233;DHT22;11785;49.500;8.288;2023-02-01T01:36:22;6.20;99.90
23233;DHT22;11785;49.500;8.288;2023-02-01T01:38:48;6.20;99.90
23233;DHT22;11785;49.500;8.288;2023-02-01T01:41:18;6.30;99.90
23233;DHT22;11785;49.500;8.288;2023-02-01T01:43:53;6.30;99.90
23233;DHT22;11785;49.500;8.288;2023-02-01T01:46:25;6.30;99.90
23233;DHT22;11785;49.500;8.288;2023-02-01T01:49:05;6.30;99.90
23233;DHT22;11785;49.500;8.288;2023-02-01T01:51:36;6.30;99.90
23233;DHT22;11785;49.500;8.288;2023-02-01T01:54:17;6.30;99.90
23233;DHT22;11785;49.500;8.288;2023-02-01T01:56:46;6.30;99.90
23233;DHT22;11785;49.500;8.288;2023-02-01T01:59:14;6.30;99.90
23233;DHT22;11785;49.500;8.288;2023-02-01T02:01:40;6.20;99.90
23233;DHT22;11785;49.500;8.288;2023-02-01T02:04:05;6.20;99.90
23233;DHT22;11785;49.500;8.288;2023-02-01T02:06:42;6.20;99.90
23233;DHT22;11785;49.500;8.288;2023-02-01T02:09:13;6.20;99.90
23233;DHT22;11785;49.500;8.288;2023-02-01T02:11:39;6.20;99.90
23233;DHT22;11785;49.500;8.288;2023-02-01T02:14:07;6.20;99.90
23233;DHT22;11785;49.500;8.288;2023-02-01T02:34:52;6.40;99.90
23233;DHT22;11785;49.500;8.288;2023-02-01T02:40:15;6.60;99.90
23233;DHT22;11785;49.500;8.288;2023-02-01T02:42:50;6.60;99.90
23233;DHT22;11785;49.500;8.288;2023-02-01T02:45:48;6.70;99.90
23233;DHT22;11785;49.500;8.288;2023-02-01T02:51:15;6.70;99.90
23233;DHT22;11785;49.500;8.288;2023-02-01T02:54:10;6.70;99.90
23233;DHT22;11785;49.500;8.288;2023-02-01T02:56:56;6.80;99.90
23233;DHT22;11785;49.500;8.288;2023-02-01T02:59:43;6.80;99.90
23233;DHT22;11785;49.500;8.288;2023-02-01T03:02:29;6.70;99.90
23233;DHT22;11785;49.500;8.288;2023-02-01T03:05:14;6.70;99.90
23233;DHT22;11785;49.500;8.288;2023-02-01T03:12:51;6.80;99.90
23233;DHT22;11785;49.500;8.288;2023-02-01T03:15:35;6.70;99.90
23233;DHT22;11785;49.500;8.288;2023-02-01T03:18:04;6.80;99.90
23233;DHT22;11785;49.500;8.288;2023-02-01T03:20:32;6.80;99.90
23233;DHT22;11785;49.500;8.288;2023-02-01T03:22:59;6.90;99.90
23233;DHT22;11785;49.500;8.288;2023-02-01T03:25:29;6.90;99.90
23233;DHT22;11785;49.500;8.288;2023-02-01T03:28:08;6.90;99.90
23233;DHT22;11785;49.500;8.288;2023-02-01T03:30:42;6.80;99.90
23233;DHT22;11785;49.500;8.288;2023-02-01T03:33:13;6.90;99.90
23233;DHT22;11785;49.500;8.288;2023-02-01T03:39:02;6.90;99.90
23233;DHT22;11785;49.500;8.288;2023-02-01T03:41:48;6.90;99.90
23233;DHT22;11785;49.500;8.288;2023-02-01T03:44:29;6.90;99.90
23233;DHT22;11785;49.500;8.288;2023-02-01T03:47:06;6.90;99.90
23233;DHT22;11785;49.500;8.288;2023-02-01T03:49:37;6.90;99.90
23233;DHT22;11785;49.500;8.288;2023-02-01T03:52:06;6.90;99.90
23233;DHT22;11785;49.500;8.288;2023-02-01T03:54:33;7.00;99.90
23233;DHT22;11785;49.500;8.288;2023-02-01T03:57:01;7.00;99.90
23233;DHT22;11785;49.500;8.288;2023-02-01T03:59:30;7.00;99.90
23233;DHT22;11785;49.500;8.288;2023-02-01T04:01:55;7.00;99.90
23233;DHT22;11785;49.500;8.288;2023-02-01T04:04:21;7.00;99.90
23233;DHT22;11785;49.500;8.288;2023-02-01T04:06:50;7.00;99.90
23233;DHT22;11785;49.500;8.288;2023-02-01T04:09:16;7.00;99.90
23233;DHT22;11785;49.500;8.288;2023-02-01T04:11:42;7.00;99.90
23233;DHT22;11785;49.500;8.288;2023-02-01T04:14:08;6.90;99.90
23233;DHT22;11785;49.500;8.288;2023-02-01T04:16:33;6.90;99.90
23233;DHT22;11785;49.500;8.288;2023-02-01T04:19:00;6.80;99.90
23233;DHT22;11785;49.500;8.288;2023-02-01T04:21:26;6.70;99.90
23233;DHT22;11785;49.500;8.288;2023-02-01T04:23:52;6.70;99.90
23233;DHT22;11785;49.500;8.288;2023-02-01T04:26:18;6.80;99.90
23233;DHT22;11785;49.500;8.288;2023-02-01T04:28:45;6.90;99.90
23233;DHT22;11785;49.500;8.288;2023-02-01T04:31:15;6.90;99.90
23233;DHT22;11785;49.500;8.288;2023-02-01T04:33:41;7.00;99.90
23233;DHT22;11785;49.500;8.288;2023-02-01T04:36:07;7.00;99.90
23233;DHT22;11785;49.500;8.288;2023-02-01T04:38:33;7.00;99.90
23233;DHT22;11785;49.500;8.288;2023-02-01T04:40:59;7.00;99.90
23233;DHT22;11785;49.500;8.288;2023-02-01T04:43:25;7.10;99.90
23233;DHT22;11785;49.500;8.288;2023-02-01T04:45:51;7.10;99.90
23233;DHT22;11785;49.500;8.288;2023-02-01T04:48:18;7.10;99.90
23233;DHT22;11785;49.500;8.288;2023-02-01T04:50:45;7.10;99.90
23233;DHT22;11785;49.500;8.288;2023-02-01T04:53:14;7.10;99.90
23233;DHT22;11785;49.500;8.288;2023-02-01T04:55:42;7.10;99.90
23233;DHT22;11785;49.500;8.288;2023-02-01T04:58:08;7.10;99.90
23233;DHT22;11785;49.500;8.288;2023-02-01T05:00:34;7.10;99.90
23233;DHT22;11785;49.500;8.288;2023-02-01T05:02:59;7.00;99.90
23233;DHT22;11785;49.500;8.288;2023-02-01T05:05:26;7.10;99.90
23233;DHT22;11785;49.500;8.288;2023-02-01T05:07:51;7.00;99.90
23233;DHT22;11785;49.500;8.288;2023-02-01T05:10:17;6.90;99.90
23233;DHT22;11785;49.500;8.288;2023-02-01T05:12:44;6.80;99.90
23233;DHT22;11785;49.500;8.288;2023-02-01T05:15:28;6.70;99.90
23233;DHT22;11785;49.500;8.288;2023-02-01T05:17:54;6.60;99.90
23233;DHT22;11785;49.500;8.288;2023-02-01T05:20:20;6.50;99.90
23233;DHT22;11785;49.500;8.288;2023-02-01T05:22:45;6.50;99.90
23233;DHT22;11785;49.500;8.288;2023-02-01T05:25:11;6.50;99.90
23233;DHT22;11785;49.500;8.288;2023-02-01T05:27:36;6.40;99.90
23233;DHT22;11785;49.500;8.288;2023-02-01T05:30:07;6.40;99.90
23233;DHT22;11785;49.500;8.288;2023-02-01T05:32:33;6.30;99.90
23233;DHT22;11785;49.500;8.288;2023-02-01T05:34:59;6.30;99.90
23233;DHT22;11785;49.500;8.288;2023-02-01T05:37:25;6.30;99.90
23233;DHT22;11785;49.500;8.288;2023-02-01T05:39:50;6.30;99.90
23233;DHT22;11785;49.500;8.288;2023-02-01T05:42:16;6.30;99.90
23233;DHT22;11785;49.500;8.288;2023-02-01T05:44:42;6.30;99.90
23233;DHT22;11785;49.500;8.288;2023-02-01T05:47:07;6.30;99.90
23233;DHT22;11785;49.500;8.288;2023-02-01T05:49:33;6.30;99.90
23233;DHT22;11785;49.500;8.288;2023-02-01T05:51:59;6.30;99.90
23233;DHT22;11785;49.500;8.288;2023-02-01T05:54:24;6.30;99.90
23233;DHT22;11785;49.500;8.288;2023-02-01T05:56:50;6.30;99.90
23233;DHT22;11785;49.500;8.288;2023-02-01T05:59:15;6.30;99.90
23233;DHT22;11785;49.500;8.288;2023-02-01T06:01:41;6.30;99.90
23233;DHT22;11785;49.500;8.288;2023-02-01T06:04:07;6.40;99.90
23233;DHT22;11785;49.500;8.288;2023-02-01T06:06:32;6.40;99.90
23233;DHT22;11785;49.500;8.288;2023-02-01T06:08:58;6.40;99.90
23233;DHT22;11785;49.500;8.288;2023-02-01T06:11:25;6.40;99.90
23233;DHT22;11785;49.500;8.288;2023-02-01T06:13:51;6.40;99.90
23233;DHT22;11785;49.500;8.288;2023-02-01T06:16:17;6.40;99.90
23233;DHT22;11785;49.500;8.288;2023-02-01T06:18:42;6.40;99.90
23233;DHT22;11785;49.500;8.288;2023-02-01T06:21:08;6.40;99.90
23233;DHT22;11785;49.500;8.288;2023-02-01T06:23:34;6.40;99.90
23233;DHT22;11785;49.500;8.288;2023-02-01T06:26:02;6.50;99.90
23233;DHT22;11785;49.500;8.288;2023-02-01T06:28:29;6.40;99.90
23233;DHT22;11785;49.500;8.288;2023-02-01T06:30:55;6.50;99.90
23233;DHT22;11785;49.500;8.288;2023-02-01T06:33:20;6.50;99.90
23233;DHT22;11785;49.500;8.288;2023-02-01T06:35:46;6.60;99.90
23233;DHT22;11785;49.500;8.288;2023-02-01T06:38:12;6.50;99.90
23233;DHT22;11785;49.500;8.288;2023-02-01T06:40:39;6.50;99.90
23233;DHT22;11785;49.500;8.288;2023-02-01T06:43:04;6.40;99.90
23233;DHT22;11785;49.500;8.288;2023-02-01T06:45:30;6.40;99.90
23233;DHT22;11785;49.500;8.288;2023-02-01T06:47:56;6.40;99.90
23233;DHT22;11785;49.500;8.288;2023-02-01T06:50:21;6.40;99.90
23233;DHT22;11785;49.500;8.288;2023-02-01T06:52:47;6.40;99.90
23233;DHT22;11785;49.500;8.288;2023-02-01T06:55:12;6.40;99.90
23233;DHT22;11785;49.500;8.288;2023-02-01T06:57:38;6.40;99.90
23233;DHT22;11785;49.500;8.288;2023-02-01T07:00:04;6.40;99.90
23233;DHT22;11785;49.500;8.288;2023-02-01T07:02:31;6.40;99.90
23233;DHT22;11785;49.500;8.288;2023-02-01T07:04:56;6.50;99.90
23233;DHT22;11785;49.500;8.288;2023-02-01T07:07:22;6.40;99.90
23233;DHT22;11785;49.500;8.288;2023-02-01T07:09:50;6.40;99.90
23233;DHT22;11785;49.500;8.288;2023-02-01T07:12:16;6.30;99.90
23233;DHT22;11785;49.500;8.288;2023-02-01T07:14:42;6.30;99.90
23233;DHT22;11785;49.500;8.288;2023-02-01T07:17:07;6.30;99.90
23233;DHT22;11785;49.500;8.288;2023-02-01T07:19:34;6.30;99.90
23233;DHT22;11785;49.500;8.288;2023-02-01T07:21:59;6.30;99.90
23233;DHT22;11785;49.500;8.288;2023-02-01T07:24:25;6.30;99.90
23233;DHT22;11785;49.500;8.288;2023-02-01T07:26:51;6.30;99.90
23233;DHT22;11785;49.500;8.288;2023-02-01T07:29:18;6.20;99.90
23233;DHT22;11785;49.500;8.288;2023-02-01T07:31:44;6.30;99.90
23233;DHT22;11785;49.500;8.288;2023-02-01T07:34:10;6.30;99.90
23233;DHT22;11785;49.500;8.288;2023-02-01T07:36:35;6.20;99.90
23233;DHT22;11785;49.500;8.288;2023-02-01T07:39:04;6.20;99.90
23233;DHT22;11785;49.500;8.288;2023-02-01T07:41:34;6.10;99.90
23233;DHT22;11785;49.500;8.288;2023-02-01T07:44:00;6.20;99.90
23233;DHT22;11785;49.500;8.288;2023-02-01T07:46:25;6.20;99.90
23233;DHT22;11785;49.500;8.288;2023-02-01T07:48:51;6.10;99.90
23233;DHT22;11785;49.500;8.288;2023-02-01T07:51:17;6.20;99.90
23233;DHT22;11785;49.500;8.288;2023-02-01T07:53:43;6.20;99.90
23233;DHT22;11785;49.500;8.288;2023-02-01T07:56:12;6.20;99.90
23233;DHT22;11785;49.500;8.288;2023-02-01T07:58:38;6.30;99.90
23233;DHT22;11785;49.500;8.288;2023-02-01T08:01:04;6.30;99.90
23233;DHT22;11785;49.500;8.288;2023-02-01T08:03:57;6.40;99.90
23233;DHT22;11785;49.500;8.288;2023-02-01T08:06:29;6.60;99.90
23233;DHT22;11785;49.500;8.288;2023-02-01T08:08:56;6.70;99.90
23233;DHT22;11785;49.500;8.288;2023-02-01T08:11:23;6.80;99.90
23233;DHT22;11785;49.500;8.288;2023-02-01T08:13:49;6.90;99.90
23233;DHT22;11785;49.500;8.288;2023-02-01T08:16:16;6.90;99.90
23233;DHT22;11785;49.500;8.288;2023-02-01T08:18:43;7.00;99.90
23233;DHT22;11785;49.500;8.288;2023-02-01T08:21:14;7.10;99.90
23233;DHT22;11785;49.500;8.288;2023-02-01T08:23:40;7.10;99.90
23233;DHT22;11785;49.500;8.288;2023-02-01T08:26:14;7.20;99.90
23233;DHT22;11785;49.500;8.288;2023-02-01T08:28:40;7.20;99.90
23233;DHT22;11785;49.500;8.288;2023-02-01T08:31:11;7.30;99.90
23233;DHT22;11785;49.500;8.288;2023-02-01T08:33:37;7.50;99.90
23233;DHT22;11785;49.500;8.288;2023-02-01T08:36:04;7.40;99.90
23233;DHT22;11785;49.500;8.288;2023-02-01T08:38:30;7.40;99.90
23233;DHT22;11785;49.500;8.288;2023-02-01T08:40:56;7.30;99.90
23233;DHT22;11785;49.500;8.288;2023-02-01T08:43:22;7.30;99.90
23233;DHT22;11785;49.500;8.288;2023-02-01T08:45:48;7.30;99.90
23233;DHT22;11785;49.500;8.288;2023-02-01T08:48:14;7.30;99.90
23233;DHT22;11785;49.500;8.288;2023-02-01T08:50:40;7.30;99.90
23233;DHT22;11785;49.500;8.288;2023-02-01T08:53:05;7.30;99.90
23233;DHT22;11785;49.500;8.288;2023-02-01T08:55:31;7.30;99.90
23233;DHT22;11785;49.500;8.288;2023-02-01T08:57:56;7.50;99.80
23233;DHT22;11785;49.500;8.288;2023-02-01T09:00:22;7.60;99.00
23233;DHT22;11785;49.500;8.288;2023-02-01T09:02:48;7.70;98.20
23233;DHT22;11785;49.500;8.288;2023-02-01T09:05:13;7.70;97.40
23233;DHT22;11785;49.500;8.288;2023-02-01T09:07:42;7.80;97.10
23233;DHT22;11785;49.500;8.288;2023-02-01T09:10:08;7.80;96.80
23233;DHT22;11785;49.500;8.288;2023-02-01T09:12:34;7.90;96.50
23233;DHT22;11785;49.500;8.288;2023-02-01T09:15:00;8.00;95.70
23233;DHT22;11785;49.500;8.288;2023-02-01T09:17:27;8.10;95.30
23233;DHT22;11785;49.500;8.288;2023-02-01T09:19:52;8.20;94.80
23233;DHT22;11785;49.500;8.288;2023-02-01T09:22:18;8.20;94.30
23233;DHT22;11785;49.500;8.288;2023-02-01T09:24:44;8.30;93.80
23233;DHT22;11785;49.500;8.288;2023-02-01T09:27:09;8.30;94.00
23233;DHT22;11785;49.500;8.288;2023-02-01T09:29:35;8.20;94.20
23233;DHT22;11785;49.500;8.288;2023-02-01T09:32:01;8.10;94.00
23233;DHT22;11785;49.500;8.288;2023-02-01T09:34:26;8.10;94.70
23233;DHT22;11785;49.500;8.288;2023-02-01T09:36:52;8.20;94.00
23233;DHT22;11785;49.500;8.288;2023-02-01T09:39:17;8.30;94.10
23233;DHT22;11785;49.500;8.288;2023-02-01T09:44:39;8.40;93.80
23233;DHT22;11785;49.500;8.288;2023-02-01T09:47:13;8.40;93.50
23233;DHT22;11785;49.500;8.288;2023-02-01T09:52:16;8.40;93.50
23233;DHT22;11785;49.500;8.288;2023-02-01T09:54:48;8.30;93.40
23233;DHT22;11785;49.500;8.288;2023-02-01T09:57:21;8.30;93.30
23233;DHT22;11785;49.500;8.288;2023-02-01T10:00:03;8.20;93.80
23233;DHT22;11785;49.500;8.288;2023-02-01T10:02:30;8.10;94.30
23233;DHT22;11785;49.500;8.288;2023-02-01T10:04:59;8.00;94.00
23233;DHT22;11785;49.500;8.288;2023-02-01T10:10:37;8.00;94.20
23233;DHT22;11785;49.500;8.288;2023-02-01T10:29:41;7.90;94.30
23233;DHT22;11785;49.500;8.288;2023-02-01T10:32:14;7.90;94.50
23233;DHT22;11785;49.500;8.288;2023-02-01T10:34:41;8.00;94.20
23233;DHT22;11785;49.500;8.288;2023-02-01T10:37:23;8.00;94.00
23233;DHT22;11785;49.500;8.288;2023-02-01T10:39:53;8.00;94.10
23233;DHT22;11785;49.500;8.288;2023-02-01T10:42:24;8.00;93.70
23233;DHT22;11785;49.500;8.288;2023-02-01T10:44:50;8.00;93.70
23233;DHT22;11785;49.500;8.288;2023-02-01T10:47:16;8.00;93.80
23233;DHT22;11785;49.500;8.288;2023-02-01T10:52:52;8.00;93.80
23233;DHT22;11785;49.500;8.288;2023-02-01T10:55:40;8.10;93.70
23233;DHT22;11785;49.500;8.288;2023-02-01T10:58:14;8.10;93.60
23233;DHT22;11785;49.500;8.288;2023-02-01T11:00:52;8.10;93.50
23233;DHT22;11785;49.500;8.288;2023-02-01T11:06:00;8.20;93.10
23233;DHT22;11785;49.500;8.288;2023-02-01T11:08:26;8.30;92.90
23233;DHT22;11785;49.500;8.288;2023-02-01T11:11:00;8.30;92.00
23233;DHT22;11785;49.500;8.288;2023-02-01T11:13:32;8.20;92.00
23233;DHT22;11785;49.500;8.288;2023-02-01T11:16:02;8.20;92.50
23233;DHT22;11785;49.500;8.288;2023-02-01T11:18:30;8.20;92.30
23233;DHT22;11785;49.500;8.288;2023-02-01T11:20:57;8.20;92.50
23233;DHT22;11785;49.500;8.288;2023-02-01T11:23:25;8.20;92.60
23233;DHT22;11785;49.500;8.288;2023-02-01T11:26:00;8.20;92.20
23233;DHT22;11785;49.500;8.288;2023-02-01T11:28:29;8.10;92.60
23233;DHT22;11785;49.500;8.288;2023-02-01T11:30:58;8.20;92.70
23233;DHT22;11785;49.500;8.288;2023-02-01T11:33:31;8.10;92.80
23233;DHT22;11785;49.500;8.288;2023-02-01T11:35:59;8.10;92.80
23233;DHT22;11785;49.500;8.288;2023-02-01T11:38:30;8.00;93.40
23233;DHT22;11785;49.500;8.288;2023-02-01T11:41:26;8.00;93.40
23233;DHT22;11785;49.500;8.288;2023-02-01T11:44:00;7.90;93.80
23233;DHT22;11785;49.500;8.288;2023-02-01T11:46:34;7.90;93.90
23233;DHT22;11785;49.500;8.288;2023-02-01T11:49:26;8.00;93.70
23233;DHT22;11785;49.500;8.288;2023-02-01T12:02:49;8.20;92.50
23233;DHT22;11785;49.500;8.288;2023-02-01T12:08:22;8.30;92.30
23233;DHT22;11785;49.500;8.288;2023-02-01T12:18:52;8.40;91.70
23233;DHT22;11785;49.500;8.288;2023-02-01T12:29:36;8.50;91.20
23233;DHT22;11785;49.500;8.288;2023-02-01T12:32:27;8.50;91.40
23233;DHT22;11785;49.500;8.288;2023-02-01T12:42:48;8.20;92.10
23233;DHT22;11785;49.500;8.288;2023-02-01T12:45:45;8.10;92.80
23233;DHT22;11785;49.500;8.288;2023-02-01T12:51:06;8.00;92.80
23233;DHT22;11785;49.500;8.288;2023-02-01T12:59:42;8.10;92.30
23233;DHT22;11785;49.500;8.288;2023-02-01T13:02:28;8.10;92.10
23233;DHT22;11785;49.500;8.288;2023-02-01T13:05:01;8.10;92.20
23233;DHT22;11785;49.500;8.288;2023-02-01T13:07:42;8.20;92.00
23233;DHT22;11785;49.500;8.288;2023-02-01T13:12:56;8.10;91.70
23233;DHT22;11785;49.500;8.288;2023-02-01T13:15:31;8.10;91.90
23233;DHT22;11785;49.500;8.288;2023-02-01T13:18:01;8.10;92.10
23233;DHT22;11785;49.500;8.288;2023-02-01T13:23:14;8.10;92.00
23233;DHT22;11785;49.500;8.288;2023-02-01T13:25:48;8.30;91.60
23233;DHT22;11785;49.500;8.288;2023-02-01T13:44:48;8.60;89.60
23233;DHT22;11785;49.500;8.288;2023-02-01T13:47:31;8.70;88.60
23233;DHT22;11785;49.500;8.288;2023-02-01T13:50:00;8.60;88.80
23233;DHT22;11785;49.500;8.288;2023-02-01T13:52:39;8.50;90.10
23233;DHT22;11785;49.500;8.288;2023-02-01T13:57:48;8.50;90.30
23233;DHT22;11785;49.500;8.288;2023-02-01T14:00:28;8.60;89.90
23233;DHT22;11785;49.500;8.288;2023-02-01T14:13:26;8.70;87.60
23233;DHT22;11785;49.500;8.288;2023-02-01T14:23:55;10.30;74.00
23233;DHT22;11785;49.500;8.288;2023-02-01T14:31:37;10.00;75.20
23233;DHT22;11785;49.500;8.288;2023-02-01T14:34:29;10.10;75.10
23233;DHT22;11785;49.500;8.288;2023-02-01T14:37:02;11.10;66.60
23233;DHT22;11785;49.500;8.288;2023-02-01T14:39:36;11.60;62.30
23233;DHT22;11785;49.500;8.288;2023-02-01T14:42:19;12.10;59.90
23233;DHT22;11785;49.500;8.288;2023-02-01T14:44:47;11.40;62.30
23233;DHT22;11785;49.500;8.288;2023-02-01T14:50:03;9.40;78.90
23233;DHT22;11785;49.500;8.288;2023-02-01T14:52:33;9.00;82.90
23233;DHT22;11785;49.500;8.288;2023-02-01T14:55:04;8.90;84.20
23233;DHT22;11785;49.500;8.288;2023-02-01T14:57:33;8.80;84.40
23233;DHT22;11785;49.500;8.288;2023-02-01T15:00:14;8.60;86.10
23233;DHT22;11785;49.500;8.288;2023-02-01T15:02:41;8.50;86.80
23233;DHT22;11785;49.500;8.288;2023-02-01T15:05:32;8.60;85.90
23233;DHT22;11785;49.500;8.288;2023-02-01T15:08:21;8.70;85.90
23233;DHT22;11785;49.500;8.288;2023-02-01T15:10:50;9.30;81.20
23233;DHT22;11785;49.500;8.288;2023-02-01T15:13:25;9.90;75.40
23233;DHT22;11785;49.500;8.288;2023-02-01T15:18:31;9.90;74.80
23233;DHT22;11785;49.500;8.288;2023-02-01T15:20:59;9.20;80.00
23233;DHT22;11785;49.500;8.288;2023-02-01T15:23:25;8.90;83.50
23233;DHT22;11785;49.500;8.288;2023-02-01T15:25:51;8.60;85.80
23233;DHT22;11785;49.500;8.288;2023-02-01T15:28:17;8.50;86.90
23233;DHT22;11785;49.500;8.288;2023-02-01T15:30:57;8.40;88.20
23233;DHT22;11785;49.500;8.288;2023-02-01T15:33:24;8.40;88.30
23233;DHT22;11785;49.500;8.288;2023-02-01T15:36:09;8.30;89.70
23233;DHT22;11785;49.500;8.288;2023-02-01T15:38:39;8.20;90.20
23233;DHT22;11785;49.500;8.288;2023-02-01T15:46:33;8.10;90.60
23233;DHT22;11785;49.500;8.288;2023-02-01T15:49:01;8.00;90.90
23233;DHT22;11785;49.500;8.288;2023-02-01T15:51:29;7.90;91.30
23233;DHT22;11785;49.500;8.288;2023-02-01T15:54:01;7.80;91.70
23233;DHT22;11785;49.500;8.288;2023-02-01T15:56:33;7.70;92.20
23233;DHT22;11785;49.500;8.288;2023-02-01T15:59:00;7.60;92.60
23233;DHT22;11785;49.500;8.288;2023-02-01T16:01:27;7.40;93.30
23233;DHT22;11785;49.500;8.288;2023-02-01T16:04:19;7.50;93.10
23233;DHT22;11785;49.500;8.288;2023-02-01T16:06:54;7.50;93.10
23233;DHT22;11785;49.500;8.288;2023-02-01T16:09:23;7.50;93.20
23233;DHT22;11785;49.500;8.288;2023-02-01T16:11:59;7.40;93.50
23233;DHT22;11785;49.500;8.288;2023-02-01T16:14:26;7.40;93.60
23233;DHT22;11785;49.500;8.288;2023-02-01T16:16:54;7.40;93.80
23233;DHT22;11785;49.500;8.288;2023-02-01T16:19:20;7.40;93.80
23233;DHT22;11785;49.500;8.288;2023-02-01T16:21:46;7.40;94.00
23233;DHT22;11785;49.500;8.288;2023-02-01T16:24:12;7.30;94.40
23233;DHT22;11785;49.500;8.288;2023-02-01T16:26:37;7.30;94.80
23233;DHT22;11785;49.500;8.288;2023-02-01T16:29:04;7.30;94.60
23233;DHT22;11785;49.500;8.288;2023-02-01T16:31:35;7.30;94.60
23233;DHT22;11785;49.500;8.288;2023-02-01T16:34:02;7.30;94.50
23233;DHT22;11785;49.500;8.288;2023-02-01T16:36:27;7.20;95.00
23233;DHT22;11785;49.500;8.288;2023-02-01T16:38:54;7.20;95.20
23233;DHT22;11785;49.500;8.288;2023-02-01T16:41:21;7.00;95.90
23233;DHT22;11785;49.500;8.288;2023-02-01T16:43:52;7.10;95.60
23233;DHT22;11785;49.500;8.288;2023-02-01T16:46:23;7.10;95.60
23233;DHT22;11785;49.500;8.288;2023-02-01T16:48:58;7.10;95.60
23233;DHT22;11785;49.500;8.288;2023-02-01T16:51:27;7.20;95.30
23233;DHT22;11785;49.500;8.288;2023-02-01T16:53:53;7.20;95.40
23233;DHT22;11785;49.500;8.288;2023-02-01T16:56:30;7.20;95.30
23233;DHT22;11785;49.500;8.288;2023-02-01T16:58:56;7.30;94.80
23233;DHT22;11785;49.500;8.288;2023-02-01T17:01:22;7.40;94.50
23233;DHT22;11785;49.500;8.288;2023-02-01T17:03:48;7.40;94.50
23233;DHT22;11785;49.500;8.288;2023-02-01T17:06:17;7.30;94.80
23233;DHT22;11785;49.500;8.288;2023-02-01T17:08:46;7.30;95.00
23233;DHT22;11785;49.500;8.288;2023-02-01T17:11:13;7.20;95.30
23233;DHT22;11785;49.500;8.288;2023-02-01T17:13:39;7.10;95.60
23233;DHT22;11785;49.500;8.288;2023-02-01T17:16:23;7.20;95.40
23233;DHT22;11785;49.500;8.288;2023-02-01T17:18:59;7.10;95.70
23233;DHT22;11785;49.500;8.288;2023-02-01T17:21:27;7.00;96.00
23233;DHT22;11785;49.500;8.288;2023-02-01T17:23:54;7.00;96.20
23233;DHT22;11785;49.500;8.288;2023-02-01T17:26:20;6.90;96.50
23233;DHT22;11785;49.500;8.288;2023-02-01T17:28:46;7.00;96.20
23233;DHT22;11785;49.500;8.288;2023-02-01T17:31:13;6.90;96.50
23233;DHT22;11785;49.500;8.288;2023-02-01T17:33:43;7.00;96.10
23233;DHT22;11785;49.500;8.288;2023-02-01T17:36:13;7.00;96.10
23233;DHT22;11785;49.500;8.288;2023-02-01T17:38:40;7.00;96.00
23233;DHT22;11785;49.500;8.288;2023-02-01T17:41:06;7.10;95.70
23233;DHT22;11785;49.500;8.288;2023-02-01T17:43:31;7.10;95.70
23233;DHT22;11785;49.500;8.288;2023-02-01T17:46:21;7.10;95.70
23233;DHT22;11785;49.500;8.288;2023-02-01T17:48:50;7.00;96.00
23233;DHT22;11785;49.500;8.288;2023-02-01T17:51:17;7.00;96.00
23233;DHT22;11785;49.500;8.288;2023-02-01T17:53:44;7.00;95.90
23233;DHT22;11785;49.500;8.288;2023-02-01T17:56:19;7.00;95.90
23233;DHT22;11785;49.500;8.288;2023-02-01T17:58:45;7.00;95.80
23233;DHT22;11785;49.500;8.288;2023-02-01T18:01:19;6.90;96.20
23233;DHT22;11785;49.500;8.288;2023-02-01T18:03:45;6.80;96.70
23233;DHT22;11785;49.500;8.288;2023-02-01T18:06:16;6.80;96.70
23233;DHT22;11785;49.500;8.288;2023-02-01T18:08:42;6.80;96.70
23233;DHT22;11785;49.500;8.288;2023-02-01T18:11:26;6.90;96.40
23233;DHT22;11785;49.500;8.288;2023-02-01T18:13:52;7.00;96.10
23233;DHT22;11785;49.500;8.288;2023-02-01T18:16:28;6.90;96.30
23233;DHT22;11785;49.500;8.288;2023-02-01T18:18:54;7.00;96.00
23233;DHT22;11785;49.500;8.288;2023-02-01T18:21:29;6.90;96.40
23233;DHT22;11785;49.500;8.288;2023-02-01T18:23:56;7.00;96.20
23233;DHT22;11785;49.500;8.288;2023-02-01T18:26:22;6.80;97.00
23233;DHT22;11785;49.500;8.288;2023-02-01T18:28:48;6.90;96.90
23233;DHT22;11785;49.500;8.288;2023-02-01T18:31:29;6.90;96.90
23233;DHT22;11785;49.500;8.288;2023-02-01T18:33:56;7.00;96.70
23233;DHT22;11785;49.500;8.288;2023-02-01T18:36:22;7.00;96.50
23233;DHT22;11785;49.500;8.288;2023-02-01T18:38:49;7.10;96.30
23233;DHT22;11785;49.500;8.288;2023-02-01T18:41:19;7.10;96.30
23233;DHT22;11785;49.500;8.288;2023-02-01T18:43:49;7.10;96.40
23233;DHT22;11785;49.500;8.288;2023-02-01T18:46:15;7.00;96.70
23233;DHT22;11785;49.500;8.288;2023-02-01T18:48:41;6.90;97.10
23233;DHT22;11785;49.500;8.288;2023-02-01T18:51:15;7.00;96.80
23233;DHT22;11785;49.500;8.288;2023-02-01T18:53:43;7.00;96.80
23233;DHT22;11785;49.500;8.288;2023-02-01T18:56:11;6.90;97.20